• Join FlightAware (Why Join?)
  • Login
  • US Flag 
05:42AM EST


 

Airport Tracker/Info


-or-


 

Live Flight TrackerFlight Track Log ✈ UAL4274 ✈ 13-Apr-2013 ✈ KIAH - KICT

Flight Track Log - Related Links

Times and Time Zones

All times are in EDT time to prevent confusion due to time zone crossing. See the UAL4274 flight status page for this flight to view local times or setup timezone preferences in your user account.

Time Position Orientation Groundspeed Altitude Reporting Facility
EDT Latitude Longitude Course Direction KTS MPH feet Rate Location/Type
09:55AM 29.9769 -95.3031 334° Northwest 154 177 700  Level Houston Center
09:56AM 30.0100 -95.2750 36° Northeast 219 252 2,500 1,620 Climbing Houston Center
09:57AM 30.0647 -95.2828 353° North 239 275 3,800 1,080 Climbing Houston Center
09:58AM 30.1417 -95.2942 353° North 271 312 4,700 1,980 Climbing Houston Center
09:59AM 30.3693 -95.5607 334° Northwest  Level FlightAware Approximate
09:59AM 30.2386 -95.3083 353° North 288 331 7,900  Level Houston Center
10:00AM 30.4670 -95.6150 334° Northwest  Level FlightAware Approximate
10:00AM 30.3083 -95.3481 334° Northwest 288 331 10,200  Level Houston Center
10:01AM 30.3758 -95.4147 320° Northwest 313 360 10,800 840 Climbing Houston Center
10:02AM 30.4375 -95.5075 308° West 357 411 12,000 1,320 Climbing Houston Center
10:03AM 30.5022 -95.6008 309° West 369 425 13,500 1,440 Climbing Houston Center
10:04AM 30.5811 -95.6758 321° Northwest 369 425 15,000 1,560 Climbing Houston Center
10:05AM 30.6894 -95.7347 335° Northwest 374 430 16,800 1,560 Climbing Houston Center
10:06AM 30.7842 -95.7853 335° Northwest 373 429 18,200 1,380 Climbing Houston Center
10:07AM 30.8769 -95.8347 335° Northwest 367 422 19,700 1,620 Climbing Houston Center
10:08AM 30.9692 -95.8847 335° Northwest 366 421 21,600 1,560 Climbing Houston Center
10:09AM 31.0608 -95.9331 336° Northwest 362 417 23,000 1,260 Climbing Houston Center
10:10AM 31.1556 -95.9808 337° Northwest 366 421 24,200 1,200 Climbing Houston Center
10:11AM 31.2158 -96.0019 343° North 372 428 24,800 1,200 Climbing Fort Worth Center
10:12AM 31.3164 -96.0394 342° North 378 435 26,000 1,080 Climbing Fort Worth Center
10:13AM 31.4192 -96.0817 341° North 388 447 27,000 1,020 Climbing Fort Worth Center
10:14AM 31.5261 -96.1242 341° North 388 447 28,100 1,020 Climbing Fort Worth Center
10:15AM 31.6311 -96.1667 341° North 395 455 29,100 900 Climbing Fort Worth Center
10:16AM 31.7378 -96.2067 342° North 395 455 30,000 420 Climbing Fort Worth Center
10:17AM 31.8511 -96.2517 341° North 410 472 30,000  Level Fort Worth Center
10:18AM 31.9703 -96.2967 342° North 432 497 30,000  Level Fort Worth Center
10:19AM 32.0878 -96.3467 340° North 449 517 30,000  Level Fort Worth Center
10:20AM 32.2133 -96.3944 342° North 457 526 30,000  Level Fort Worth Center
10:21AM 32.3181 -96.4325 343° North 457 526 30,000  Level Fort Worth Center
10:22AM 32.4375 -96.4781 342° North 445 512 30,000  Level Fort Worth Center
10:23AM 32.5567 -96.5261 341° North 445 512 30,000  Level Fort Worth Center
10:24AM 32.6761 -96.5694 343° North 445 512 30,000  Level Fort Worth Center
10:25AM 32.7975 -96.6175 342° North 445 512 30,000  Level Fort Worth Center
10:26AM 32.9167 -96.6611 343° North 445 512 30,000  Level Fort Worth Center
10:27AM 33.0361 -96.7072 342° North 445 512 30,000  Level Fort Worth Center
10:28AM 33.1572 -96.7533 342° North 445 512 30,000  Level Fort Worth Center
10:29AM 33.2764 -96.8022 341° North 445 512 30,000  Level Fort Worth Center
10:30AM 33.3936 -96.8461 343° North 445 512 30,000  Level Fort Worth Center
10:31AM 33.5150 -96.8928 342° North 445 512 30,000  Level Fort Worth Center
10:32AM 33.6403 -96.9444 341° North 445 512 30,000  Level Fort Worth Center
10:33AM 33.7594 -96.9886 343° North 445 512 30,000  Level Fort Worth Center
10:34AM 33.8744 -97.0358 341° North 440 506 30,000  Level Fort Worth Center
10:35AM 33.9956 -97.0828 342° North 440 506 30,000  Level Fort Worth Center
10:36AM 34.1061 -97.1300 341° North 439 505 30,000  Level Fort Worth Center
10:37AM 34.2253 -97.1800 341° North 439 505 30,000  Level Fort Worth Center
10:38AM 34.3464 -97.2222 344° North 439 505 30,000  Level Fort Worth Center
10:39AM 34.4653 -97.2700 342° North 444 511 30,000  Level Fort Worth Center
10:40AM 34.5844 -97.3153 343° North 444 511 30,000  Level Fort Worth Center
10:41AM 34.7011 -97.3581 343° North 444 511 30,000  Level Fort Worth Center
10:42AM 34.8139 -97.4008 343° North 439 505 30,000  Level Fort Worth Center
10:43AM 34.9264 -97.4464 342° North 434 499 30,000  Level Fort Worth Center
10:44AM 35.0411 -97.4897 343° North 429 494 30,000  Level Fort Worth Center
10:46AM 35.2411 -97.5650 343° North 416 479 30,000  Level Kansas City Center
10:47AM 35.3547 -97.6042 344° North 416 479 30,000  Level Kansas City Center
10:48AM 35.4808 -97.5772 10° North 446 513 30,000  Level Kansas City Center
10:49AM 35.6069 -97.5419 13° North 453 521 30,000 -600 Level Kansas City Center
10:50AM 35.7339 -97.5072 13° North 459 528 28,800 -1,500 Descending Kansas City Center
10:51AM 35.8869 -97.4653 13° North 465 535 27,000 -1,680 Descending Kansas City Center
10:52AM 36.0119 -97.4303 13° North 463 533 25,400 -1,500 Descending Kansas City Center
10:53AM 36.1289 -97.3969 13° North 438 504 23,900 -1,380 Descending Kansas City Center
10:54AM 36.2486 -97.3628 13° North 438 504 22,700 -1,020 Descending Kansas City Center
10:55AM 36.3717 -97.3289 13° North 445 512 21,800 -960 Descending Kansas City Center
10:56AM 36.4925 -97.2947 13° North 446 513 20,800 -960 Descending Kansas City Center
10:57AM 36.6081 -97.2639 12° North 435 501 19,900 -960 Descending Kansas City Center
10:58AM 36.7211 -97.2347 12° North 421 484 18,900 -1,080 Descending Kansas City Center
10:59AM 36.8508 -97.1972 13° North 409 471 17,800 -1,020 Descending Kansas City Center
11:00AM 36.9569 -97.1658 13° North 399 459 16,900 -1,020 Descending Kansas City Center
11:01AM 37.0608 -97.1367 13° North 388 447 15,700 -1,380 Descending Kansas City Center
11:02AM 37.1239 -97.1158 15° North 365 420 14,700 -1,380 Descending Kansas City Center
11:02AM 37.1603 -97.1058 12° North 375 432 14,300 -1,440 Descending Kansas City Center
11:03AM 37.2447 -97.1258 349° North 361 415 13,000 -1,500 Descending Kansas City Center
11:03AM 37.2567 -97.1319 338° Northwest 372 428 12,800 -1,560 Descending Kansas City Center
11:04AM 37.3289 -97.1889 328° Northwest 360 414 11,500 -1,380 Descending Kansas City Center
11:04AM 37.3425 -97.1961 337° Northwest 361 415 11,400 -1,080 Descending Kansas City Center
11:05AM 37.4083 -97.2475 328° Northwest 318 366 10,400 -1,200 Descending Kansas City Center
11:05AM 37.4192 -97.2569 325° Northwest 330 380 10,200 -1,260 Descending Kansas City Center
11:06AM 37.4700 -97.2958 329° Northwest 263 303 9,300 -1,740 Descending Kansas City Center
11:06AM 37.4964 -97.3147 330° Northwest 270 311 8,500 -2,040 Descending Kansas City Center
11:07AM 37.5383 -97.3300 344° North 274 315 7,300 -1,920 Descending Kansas City Center
11:07AM 37.5719 -97.3286 North 282 325 6,500 -1,920 Descending Kansas City Center
11:08AM 37.6181 -97.3283 360° North 292 336 5,400 -1,860 Descending Kansas City Center